Time;durP1;ratioP1;P1;durP2;ratioP2;P2;SDS_P1;SDS_P2;PMS_P1;PMS_P2;Temp;Humidity;BMP_temperature;BMP_pressure;BME280_temperature;BME280_humidity;BME280_pressure;Samples;Min_cycle;Max_cycle;Signal;HPM_P1;HPM_P2
2024/04/04 00:02:33;;;;;;;11.23;2.53;;;16.30;85.90;;;;;;4187301;28;20114;-37
2024/04/04 00:05:13;;;;;;;13.48;2.55;;;16.30;85.90;;;;;;4187865;28;20505;-38
2024/04/04 00:07:54;;;;;;;11.30;2.10;;;16.30;85.60;;;;;;4199144;28;20398;-38
2024/04/04 00:10:34;;;;;;;8.38;2.00;;;16.30;85.70;;;;;;4188368;28;20063;-37
2024/04/04 00:13:13;;;;;;;11.75;2.78;;;16.30;86.60;;;;;;4188231;28;20135;-38
2024/04/04 00:15:52;;;;;;;13.52;3.05;;;16.30;85.90;;;;;;4199405;28;20063;-38
2024/04/04 00:18:32;;;;;;;12.95;3.08;;;16.30;85.90;;;;;;4188625;28;20072;-37
2024/04/04 00:21:12;;;;;;;14.35;3.05;;;16.20;86.00;;;;;;4187487;28;20052;-37
2024/04/04 00:23:52;;;;;;;12.38;3.30;;;16.30;86.10;;;;;;4188627;28;20087;-37
2024/04/04 00:26:32;;;;;;;13.05;2.30;;;16.20;85.90;;;;;;4188612;28;20125;-37
2024/04/04 00:29:11;;;;;;;12.13;3.50;;;16.20;85.60;;;;;;4190320;28;20058;-37
2024/04/04 00:31:51;;;;;;;11.10;2.47;;;16.20;85.90;;;;;;4187627;28;20078;-37
2024/04/04 00:34:31;;;;;;;12.95;2.72;;;16.20;85.90;;;;;;4187858;28;20052;-37
2024/04/04 00:37:11;;;;;;;11.38;2.67;;;16.20;85.90;;;;;;4187643;28;20609;-38
2024/04/04 00:39:51;;;;;;;12.73;2.10;;;16.20;85.30;;;;;;4188621;28;20055;-37
2024/04/04 00:42:31;;;;;;;16.48;3.22;;;16.20;85.50;;;;;;4187496;28;20094;-38
2024/04/04 00:45:11;;;;;;;15.90;2.95;;;16.20;85.60;;;;;;4187622;28;20051;-37
2024/04/04 00:47:51;;;;;;;9.98;2.70;;;16.20;85.80;;;;;;4187454;28;20134;-38
2024/04/04 00:50:31;;;;;;;10.00;2.55;;;16.20;85.70;;;;;;4187221;28;20043;-38
2024/04/04 00:53:11;;;;;;;9.55;2.80;;;16.20;85.80;;;;;;4187263;28;20498;-38
2024/04/04 00:55:54;;;;;;;12.18;2.90;;;16.20;85.60;;;;;;4187938;28;20457;-38
2024/04/04 00:58:34;;;;;;;12.65;2.70;;;16.20;85.60;;;;;;4201701;28;20130;-38
2024/04/04 01:01:13;;;;;;;9.50;2.90;;;16.20;85.50;;;;;;4203680;28;20100;-38
2024/04/04 01:03:54;;;;;;;10.77;3.20;;;16.20;85.60;;;;;;4204042;28;20293;-38
2024/04/04 01:06:33;;;;;;;10.38;3.13;;;16.20;85.60;;;;;;4204047;28;20125;-38
2024/04/04 01:09:15;;;;;;;12.52;2.90;;;16.20;85.70;;;;;;4203998;28;20063;-38
2024/04/04 01:11:55;;;;;;;11.20;2.60;;;16.20;85.50;;;;;;4203074;28;20101;-38
2024/04/04 01:14:41;;;;;;;11.68;2.53;;;16.10;85.90;;;;;;4189336;28;20070;-38
2024/04/04 01:17:20;;;;;;;17.25;3.65;;;16.10;85.80;;;;;;4203303;28;20050;-38
2024/04/04 01:20:00;;;;;;;8.43;1.98;;;16.10;85.70;;;;;;4192322;28;20058;-38
2024/04/04 01:22:40;;;;;;;11.40;2.60;;;16.10;85.40;;;;;;4203620;28;20148;-38
2024/04/04 01:25:21;;;;;;;9.75;3.72;;;16.10;85.70;;;;;;4198230;28;20063;-38
2024/04/04 01:28:00;;;;;;;14.05;3.38;;;16.10;85.80;;;;;;4197402;28;20128;-38
2024/04/04 01:30:40;;;;;;;9.70;2.20;;;16.10;85.60;;;;;;4187055;28;20105;-38
2024/04/04 01:33:19;;;;;;;11.52;2.35;;;16.10;85.60;;;;;;4187235;28;20109;-37
2024/04/04 01:35:59;;;;;;;11.55;2.30;;;16.10;85.60;;;;;;4187157;28;20105;-38
2024/04/04 01:38:38;;;;;;;12.02;3.08;;;16.10;85.90;;;;;;4186708;28;20062;-38
2024/04/04 01:41:19;;;;;;;11.70;2.50;;;16.10;86.10;;;;;;4192572;28;20070;-38
2024/04/04 01:43:58;;;;;;;;;;;16.10;86.20;;;;;;4203294;28;20097;-38
2024/04/04 01:46:38;;;;;;;13.73;3.10;;;16.10;86.30;;;;;;4203019;28;20064;-38
2024/04/04 01:49:18;;;;;;;14.10;2.80;;;16.10;86.90;;;;;;4203602;28;20452;-38
2024/04/04 01:51:58;;;;;;;8.00;2.00;;;16.10;86.70;;;;;;4202838;28;20147;-38
2024/04/04 01:54:37;;;;;;;9.52;1.92;;;16.00;86.60;;;;;;4186598;28;20402;-37
2024/04/04 01:57:18;;;;;;;11.10;3.17;;;16.10;86.60;;;;;;4185208;28;20105;-37
2024/04/04 01:59:57;;;;;;;;;;;16.00;86.20;;;;;;4192523;28;20570;-38
2024/04/04 02:02:37;;;;;;;12.40;2.20;;;16.00;86.50;;;;;;4198010;28;19932;-38
2024/04/04 02:05:16;;;;;;;9.60;2.28;;;16.00;86.70;;;;;;4186329;28;20109;-38
2024/04/04 02:07:56;;;;;;;10.35;2.00;;;16.00;86.40;;;;;;4197423;28;20567;-38
2024/04/04 02:10:36;;;;;;;12.45;2.20;;;16.00;86.50;;;;;;4201778;28;20398;-38
2024/04/04 02:13:17;;;;;;;10.30;2.50;;;16.00;86.50;;;;;;4186141;28;20121;-37
2024/04/04 02:15:57;;;;;;;14.25;3.50;;;16.00;86.40;;;;;;4186683;28;20106;-38
2024/04/04 02:18:38;;;;;;;11.63;2.80;;;16.00;86.30;;;;;;4186392;28;20113;-38
2024/04/04 02:21:17;;;;;;;10.40;2.53;;;16.00;86.30;;;;;;4191574;28;20093;-37
2024/04/04 02:23:57;;;;;;;8.70;2.67;;;16.00;86.20;;;;;;4202753;28;20135;-38
2024/04/04 02:26:36;;;;;;;10.38;2.42;;;16.00;86.40;;;;;;4185170;28;20044;-38
2024/04/04 02:29:17;;;;;;;12.23;3.25;;;16.00;86.40;;;;;;4195143;28;20501;-37
2024/04/04 02:31:56;;;;;;;8.35;2.60;;;16.00;86.30;;;;;;4201241;27;20154;-37
2024/04/04 02:34:36;;;;;;;14.05;2.72;;;15.90;86.50;;;;;;4200989;28;20104;-37
2024/04/04 02:37:15;;;;;;;12.32;2.83;;;16.00;86.40;;;;;;4203192;28;20051;-37
2024/04/04 02:39:55;;;;;;;14.68;2.42;;;15.90;86.50;;;;;;4202959;28;20059;-37
2024/04/04 02:42:35;;;;;;;13.98;3.25;;;15.90;86.50;;;;;;4186334;28;20051;-38
2024/04/04 02:45:18;;;;;;;9.68;2.67;;;15.90;86.50;;;;;;4186251;28;20605;-37
2024/04/04 02:47:57;;;;;;;11.55;2.35;;;15.90;86.60;;;;;;4186022;28;20122;-38
2024/04/04 02:50:37;;;;;;;9.75;2.10;;;15.90;87.40;;;;;;4185709;28;20129;-37
2024/04/04 02:53:16;;;;;;;8.52;2.38;;;16.00;86.40;;;;;;4186333;28;20064;-37
2024/04/04 02:55:57;;;;;;;9.10;2.10;;;15.90;86.30;;;;;;4194727;28;20050;-37
2024/04/04 02:58:36;;;;;;;8.00;2.70;;;15.90;86.10;;;;;;4190418;28;20106;-37
2024/04/04 03:01:17;;;;;;;6.57;1.67;;;15.90;86.00;;;;;;4185977;28;20067;-37
2024/04/04 03:03:56;;;;;;;;;;;15.90;85.90;;;;;;4191455;28;20063;-37
2024/04/04 03:06:37;;;;;;;12.18;2.03;;;15.90;86.00;;;;;;4202142;28;19931;-37
2024/04/04 03:09:16;;;;;;;11.45;1.88;;;15.90;86.90;;;;;;4202025;28;20067;-38
2024/04/04 03:11:56;;;;;;;6.13;2.08;;;15.90;86.90;;;;;;4202100;28;20055;-37
2024/04/04 03:14:35;;;;;;;9.60;2.50;;;15.90;86.70;;;;;;4198918;28;20109;-38
2024/04/04 03:17:16;;;;;;;8.75;1.75;;;15.90;86.40;;;;;;4202683;28;20059;-37
2024/04/04 03:19:55;;;;;;;;;;;15.80;86.30;;;;;;4203292;28;20055;-43
2024/04/04 03:22:36;;;;;;;8.30;2.15;;;15.80;86.30;;;;;;4202140;28;19930;-45
2024/04/04 03:25:15;;;;;;;5.75;1.38;;;15.80;86.90;;;;;;4200863;28;20074;-44
2024/04/04 03:27:55;;;;;;;7.32;1.63;;;15.90;86.80;;;;;;4186066;28;20509;-43
2024/04/04 03:30:34;;;;;;;7.03;2.45;;;15.80;86.40;;;;;;4185746;28;20055;-43
2024/04/04 03:33:15;;;;;;;4.70;1.73;;;15.80;86.20;;;;;;4186163;28;20056;-44
2024/04/04 03:35:55;;;;;;;6.18;1.65;;;15.80;86.30;;;;;;4185893;28;20194;-43
2024/04/04 03:38:35;;;;;;;6.45;1.73;;;15.80;86.30;;;;;;4190403;28;20079;-43
2024/04/04 03:41:15;;;;;;;7.90;2.10;;;15.80;86.20;;;;;;4204636;28;20054;-43
2024/04/04 03:43:55;;;;;;;8.32;2.45;;;15.80;86.00;;;;;;4205597;28;20129;-43
2024/04/04 03:46:34;;;;;;;6.88;1.67;;;15.80;85.80;;;;;;4203402;28;20074;-44
2024/04/04 03:49:16;;;;;;;9.23;1.70;;;15.80;85.80;;;;;;4188636;28;20494;-43
2024/04/04 03:51:55;;;;;;;;;;;15.80;85.70;;;;;;4204425;27;20105;-43
2024/04/04 03:54:36;;;;;;;9.18;2.28;;;15.80;85.80;;;;;;4172072;28;20443;-43
2024/04/04 03:57:17;;;;;;;7.70;1.63;;;15.80;86.50;;;;;;4173398;28;20106;-43
2024/04/04 03:59:57;;;;;;;8.27;1.58;;;15.70;86.10;;;;;;4188433;28;20106;-43
2024/04/04 04:02:36;;;;;;;7.60;2.45;;;15.70;86.10;;;;;;4173195;28;20396;-44
2024/04/04 04:05:18;;;;;;;7.15;1.60;;;15.70;86.20;;;;;;4185527;28;20105;-43
2024/04/04 04:07:57;;;;;;;10.15;1.95;;;15.70;86.10;;;;;;4199527;28;20051;-43
2024/04/04 04:10:37;;;;;;;7.85;1.40;;;15.70;85.90;;;;;;4204830;28;20079;-44
2024/04/04 04:13:16;;;;;;;5.88;2.08;;;15.70;85.80;;;;;;4194923;28;20059;-43
2024/04/04 04:15:57;;;;;;;8.90;1.95;;;15.70;85.70;;;;;;4188141;28;20048;-44
2024/04/04 04:18:36;;;;;;;5.47;1.38;;;15.70;85.70;;;;;;4187999;28;20489;-44
2024/04/04 04:21:21;;;;;;;6.57;2.10;;;15.70;85.70;;;;;;4189704;28;20122;-43
2024/04/04 04:24:02;;;;;;;4.28;1.63;;;15.70;85.60;;;;;;4188137;28;20371;-43
2024/04/04 04:26:41;;;;;;;4.30;1.40;;;15.70;85.60;;;;;;4200971;28;20142;-43
2024/04/04 04:29:21;;;;;;;7.43;1.98;;;15.70;85.50;;;;;;4204743;28;20114;-45
2024/04/04 04:32:01;;;;;;;5.55;1.35;;;15.70;85.50;;;;;;4204636;28;20135;-45
2024/04/04 04:34:41;;;;;;;6.75;1.30;;;15.60;86.00;;;;;;4191202;28;20062;-45
2024/04/04 04:37:21;;;;;;;11.98;3.35;;;15.60;85.90;;;;;;4198220;27;20112;-45
2024/04/04 04:40:01;;;;;;;5.00;1.27;;;15.70;86.20;;;;;;4205163;28;20070;-46
2024/04/04 04:42:41;;;;;;;8.37;1.93;;;15.70;86.10;;;;;;4204457;28;20136;-44
2024/04/04 04:45:21;;;;;;;7.10;1.92;;;15.80;86.00;;;;;;4204619;28;20679;-45
2024/04/04 04:48:00;;;;;;;5.07;1.27;;;15.80;86.10;;;;;;4204269;28;20482;-45
2024/04/04 04:50:40;;;;;;;4.57;1.80;;;15.80;86.30;;;;;;4187605;28;20059;-45
2024/04/04 04:53:20;;;;;;;5.10;1.48;;;15.80;86.10;;;;;;4197181;28;20061;-46
2024/04/04 04:56:00;;;;;;;4.57;1.33;;;15.80;85.90;;;;;;4202454;27;20070;-43
2024/04/04 04:58:39;;;;;;;12.77;1.63;;;15.90;85.90;;;;;;4203762;28;20062;-46
2024/04/04 05:01:19;;;;;;;7.32;2.60;;;15.90;85.60;;;;;;4204300;28;20047;-43
2024/04/04 05:03:58;;;;;;;5.70;1.30;;;15.90;85.50;;;;;;4191423;28;20553;-43
2024/04/04 05:06:39;;;;;;;5.97;1.27;;;15.90;85.40;;;;;;4187906;28;20506;-44
2024/04/04 05:09:19;;;;;;;7.28;1.50;;;15.90;85.30;;;;;;4193851;28;20122;-43
2024/04/04 05:11:59;;;;;;;2.50;1.00;;;15.90;85.00;;;;;;4204838;28;20101;-46
2024/04/04 05:14:38;;;;;;;5.32;1.40;;;15.80;84.70;;;;;;4203962;28;20074;-45
2024/04/04 05:17:18;;;;;;;4.78;1.48;;;15.80;84.80;;;;;;4202712;28;20104;-45
2024/04/04 05:19:57;;;;;;;1.63;1.02;;;15.80;84.70;;;;;;4203448;28;20109;-44
2024/04/04 05:22:37;;;;;;;4.05;1.30;;;15.80;85.30;;;;;;4201450;28;20079;-45
2024/04/04 05:25:17;;;;;;;4.15;1.30;;;15.90;85.80;;;;;;4187877;28;20048;-45
2024/04/04 05:27:56;;;;;;;4.55;1.10;;;16.00;85.80;;;;;;4187080;28;20058;-45
2024/04/04 05:30:36;;;;;;;2.03;0.95;;;16.00;85.80;;;;;;4188439;28;20454;-44
2024/04/04 05:33:16;;;;;;;4.95;1.60;;;16.00;85.50;;;;;;4187106;28;20110;-47
2024/04/04 05:35:55;;;;;;;2.22;1.40;;;16.00;85.20;;;;;;4187029;28;20055;-45
2024/04/04 05:38:34;;;;;;;2.22;1.17;;;16.10;85.30;;;;;;4186709;28;20148;-45
2024/04/04 05:41:15;;;;;;;3.85;1.10;;;16.10;85.30;;;;;;4195608;28;20097;-45
2024/04/04 05:43:55;;;;;;;3.63;1.10;;;16.10;85.10;;;;;;4202811;28;20343;-45
2024/04/04 05:46:34;;;;;;;3.08;1.33;;;16.10;85.10;;;;;;4186509;28;20102;-44
2024/04/04 05:49:14;;;;;;;5.32;1.33;;;16.10;85.00;;;;;;4185833;28;20114;-46
2024/04/04 05:51:53;;;;;;;2.45;0.90;;;16.10;84.90;;;;;;4186165;28;20050;-45
2024/04/04 05:54:35;;;;;;;4.93;1.17;;;16.10;85.10;;;;;;4196527;28;20112;-47
2024/04/04 05:57:16;;;;;;;2.35;1.00;;;16.20;84.90;;;;;;4186433;28;20132;-44
2024/04/04 05:59:56;;;;;;;4.70;1.15;;;16.20;85.00;;;;;;4189552;28;20055;-44
2024/04/04 06:02:35;;;;;;;1.75;0.90;;;16.20;85.20;;;;;;4186465;28;20056;-45
2024/04/04 06:05:16;;;;;;;2.20;1.00;;;16.20;84.80;;;;;;4185872;28;20470;-44
2024/04/04 06:07:55;;;;;;;4.15;1.00;;;16.20;85.90;;;;;;4186300;28;20376;-45
2024/04/04 06:10:36;;;;;;;5.18;1.33;;;16.20;84.90;;;;;;4184965;28;20071;-45
2024/04/04 06:13:16;;;;;;;2.63;1.10;;;16.30;84.60;;;;;;4187021;28;20581;-44
2024/04/04 06:15:56;;;;;;;4.17;1.20;;;16.30;84.30;;;;;;4186593;28;20047;-46
2024/04/04 06:18:35;;;;;;;1.58;0.93;;;16.30;84.10;;;;;;4186311;28;20050;-43
2024/04/04 06:21:15;;;;;;;3.03;1.13;;;16.40;84.00;;;;;;4184824;28;20051;-42
2024/04/04 06:23:54;;;;;;;4.93;1.17;;;16.40;84.50;;;;;;4183837;28;20075;-41
2024/04/04 06:26:34;;;;;;;2.80;1.38;;;16.40;85.40;;;;;;4186371;28;20110;-42
2024/04/04 06:29:15;;;;;;;2.40;1.20;;;16.40;85.80;;;;;;4185973;28;20067;-42
2024/04/04 06:31:55;;;;;;;5.25;1.50;;;16.40;85.50;;;;;;4186287;28;20143;-42
2024/04/04 06:34:34;;;;;;;3.92;1.58;;;16.40;85.10;;;;;;4185322;28;20059;-42
2024/04/04 06:37:16;;;;;;;3.85;1.35;;;16.40;84.80;;;;;;4188399;28;20079;-41
2024/04/04 06:39:55;;;;;;;3.20;1.50;;;16.40;84.60;;;;;;4182768;28;20055;-42
2024/04/04 06:42:35;;;;;;;3.15;1.27;;;16.40;84.30;;;;;;4202176;28;20050;-42
2024/04/04 06:45:16;;;;;;;2.83;1.40;;;16.50;84.40;;;;;;4202863;28;20070;-42
2024/04/04 06:47:57;;;;;;;1.10;1.00;;;16.50;84.20;;;;;;4202416;28;20102;-42
2024/04/04 06:50:36;;;;;;;;;;;16.50;83.80;;;;;;4199222;28;20059;-41
2024/04/04 06:53:16;;;;;;;2.97;1.20;;;16.60;83.40;;;;;;4201943;28;19926;-43
2024/04/04 06:55:55;;;;;;;3.95;1.40;;;16.60;83.10;;;;;;4187078;28;20055;-44
2024/04/04 06:58:35;;;;;;;5.05;1.58;;;16.50;82.70;;;;;;4186339;28;20051;-41
2024/04/04 07:01:15;;;;;;;5.20;1.50;;;16.50;82.70;;;;;;4186721;28;20051;-41
2024/04/04 07:03:56;;;;;;;3.83;1.52;;;16.50;82.80;;;;;;4185586;28;20113;-41
2024/04/04 07:06:35;;;;;;;4.93;1.88;;;16.50;82.90;;;;;;4200496;28;20055;-41
2024/04/04 07:09:15;;;;;;;2.47;1.67;;;16.40;83.00;;;;;;4190907;28;20201;-41
2024/04/04 07:11:54;;;;;;;2.00;1.77;;;16.40;83.00;;;;;;4197779;28;20051;-41
2024/04/04 07:14:35;;;;;;;4.32;2.00;;;16.40;83.10;;;;;;4204370;28;20148;-41
2024/04/04 07:17:15;;;;;;;2.75;1.58;;;16.40;83.70;;;;;;4205978;28;20158;-41
2024/04/04 07:19:56;;;;;;;6.55;1.90;;;16.30;83.70;;;;;;4199654;28;20098;-41
2024/04/04 07:22:35;;;;;;;3.30;2.00;;;16.30;84.20;;;;;;4188934;28;20102;-41
2024/04/04 07:25:16;;;;;;;2.38;1.75;;;16.30;84.00;;;;;;4189165;28;20150;-41
2024/04/04 07:27:55;;;;;;;1.90;1.80;;;16.20;84.00;;;;;;4204132;28;20581;-42
2024/04/04 07:30:37;;;;;;;1.92;1.73;;;16.20;84.10;;;;;;4200318;28;20055;-39
2024/04/04 07:33:17;;;;;;;1.40;1.30;;;16.10;84.20;;;;;;4188290;28;20048;-39
2024/04/04 07:35:57;;;;;;;2.83;1.30;;;16.10;84.30;;;;;;4195111;28;20079;-39
2024/04/04 07:38:37;;;;;;;1.90;1.30;;;16.10;84.40;;;;;;4171276;28;20379;-41
2024/04/04 07:41:17;;;;;;;2.13;1.30;;;16.10;84.50;;;;;;4188651;28;20189;-39
2024/04/04 07:43:58;;;;;;;2.30;1.67;;;16.00;84.60;;;;;;4189572;28;20060;-39
2024/04/04 07:46:37;;;;;;;1.90;1.40;;;16.00;84.70;;;;;;4186801;28;20113;-39
2024/04/04 07:49:18;;;;;;;1.52;1.40;;;16.00;84.90;;;;;;4191067;28;20447;-39
2024/04/04 07:51:58;;;;;;;1.85;1.75;;;15.90;85.00;;;;;;4192841;28;20055;-39
2024/04/04 07:54:39;;;;;;;4.40;1.83;;;15.90;85.20;;;;;;4204434;28;20121;-39
2024/04/04 07:57:19;;;;;;;1.90;1.50;;;15.90;85.40;;;;;;4204829;28;20443;-39
2024/04/04 07:59:57;;;;;;;1.63;1.50;;;15.90;85.40;;;;;;4204976;28;20051;-39
2024/04/04 08:02:37;;;;;;;1.77;1.50;;;15.90;85.40;;;;;;4193346;28;20105;-39
2024/04/04 08:05:18;;;;;;;2.15;1.50;;;15.80;85.30;;;;;;4188018;28;20494;-39
2024/04/04 08:07:58;;;;;;;2.30;1.58;;;15.80;85.40;;;;;;4188471;28;20067;-39
2024/04/04 08:10:37;;;;;;;1.93;1.60;;;15.90;85.40;;;;;;4188188;28;20510;-39
2024/04/04 08:13:17;;;;;;;2.70;1.80;;;15.80;85.40;;;;;;4187963;28;20078;-39
2024/04/04 08:15:56;;;;;;;2.75;1.50;;;15.80;85.50;;;;;;4187698;28;20075;-39
2024/04/04 08:18:36;;;;;;;2.17;2.00;;;15.80;85.60;;;;;;4202534;28;20069;-39
2024/04/04 08:21:16;;;;;;;1.80;1.70;;;15.80;85.60;;;;;;4188307;28;20483;-39
2024/04/04 08:23:57;;;;;;;3.08;1.80;;;15.70;85.60;;;;;;4188456;28;20407;-39
2024/04/04 08:26:36;;;;;;;2.78;1.80;;;15.70;85.70;;;;;;4199570;28;20517;-39
2024/04/04 08:29:16;;;;;;;1.95;1.83;;;15.70;85.80;;;;;;4204373;28;20078;-39
2024/04/04 08:31:55;;;;;;;1.63;1.58;;;15.70;85.90;;;;;;4197688;28;20181;-39
2024/04/04 08:34:35;;;;;;;1.17;1.17;;;15.70;86.00;;;;;;4187257;28;20066;-39
2024/04/04 08:37:15;;;;;;;1.85;1.60;;;15.70;86.00;;;;;;4187160;28;20136;-40
2024/04/04 08:39:55;;;;;;;2.20;1.50;;;15.70;86.10;;;;;;4198983;28;20132;-39
2024/04/04 08:42:35;;;;;;;1.73;1.30;;;15.70;86.20;;;;;;4204470;28;20105;-39
2024/04/04 08:45:19;;;;;;;1.80;1.70;;;15.70;86.20;;;;;;4203118;28;20058;-40
2024/04/04 08:48:02;;;;;;;1.30;1.30;;;15.70;86.00;;;;;;4202787;28;20795;-39
2024/04/04 08:50:45;;;;;;;1.65;1.55;;;15.80;85.90;;;;;;4204309;28;20062;-39
2024/04/04 08:53:27;;;;;;;1.60;1.50;;;15.80;85.80;;;;;;4202770;28;20109;-39
2024/04/04 08:56:06;;;;;;;1.52;1.40;;;15.90;85.60;;;;;;4204617;28;20097;-39
2024/04/04 08:58:46;;;;;;;2.70;1.55;;;15.90;85.30;;;;;;4189760;28;20063;-39
2024/04/04 09:01:26;;;;;;;2.03;1.50;;;16.00;85.20;;;;;;4187363;28;20094;-39
2024/04/04 09:04:06;;;;;;;2.13;1.80;;;16.00;85.00;;;;;;4187436;28;20059;-38
2024/04/04 09:06:45;;;;;;;1.87;1.40;;;16.00;84.90;;;;;;4187186;28;20059;-39
2024/04/04 09:09:27;;;;;;;2.25;1.67;;;16.00;84.90;;;;;;4186814;28;20051;-39
2024/04/04 09:12:10;;;;;;;1.75;1.65;;;16.00;84.90;;;;;;4186269;28;20453;-39
2024/04/04 09:14:56;;;;;;;2.55;1.40;;;16.00;85.10;;;;;;4187299;28;20513;-40
2024/04/04 09:17:36;;;;;;;1.38;1.33;;;16.00;85.20;;;;;;4184323;28;20461;-39
2024/04/04 09:20:19;;;;;;;1.60;1.50;;;16.00;85.30;;;;;;4185974;28;20051;-39
2024/04/04 09:22:59;;;;;;;1.55;1.45;;;16.00;85.80;;;;;;4189163;28;20066;-39
2024/04/04 09:25:41;;;;;;;2.25;1.40;;;16.10;85.60;;;;;;4190121;28;20100;-39
2024/04/04 09:28:21;;;;;;;1.52;1.50;;;16.20;85.10;;;;;;4203897;28;20062;-39
2024/04/04 09:31:02;;;;;;;2.17;1.95;;;16.30;84.90;;;;;;4186617;28;20457;-39
2024/04/04 09:33:41;;;;;;;;;;;16.30;84.70;;;;;;4186943;28;20387;-39
2024/04/04 09:36:24;;;;;;;1.60;1.50;;;16.30;85.50;;;;;;4186791;28;20325;-39
2024/04/04 09:39:08;;;;;;;4.07;1.70;;;16.30;84.60;;;;;;4186489;28;20059;-39
2024/04/04 09:41:53;;;;;;;2.70;2.13;;;16.30;84.70;;;;;;4186711;28;20066;-39
2024/04/04 09:44:32;;;;;;;1.77;1.67;;;16.30;84.70;;;;;;4186274;28;20043;-40
2024/04/04 09:47:13;;;;;;;1.80;1.70;;;16.30;84.90;;;;;;4186054;28;20075;-40
2024/04/04 09:49:53;;;;;;;1.92;1.83;;;16.30;85.20;;;;;;4186861;28;20553;-39
2024/04/04 09:52:34;;;;;;;2.05;1.80;;;16.20;85.00;;;;;;4186630;28;20067;-40
2024/04/04 09:55:14;;;;;;;;;;;16.20;85.30;;;;;;4203398;28;20055;-39
2024/04/04 09:57:56;;;;;;;1.70;1.60;;;16.20;85.40;;;;;;4191104;28;20036;-39
2024/04/04 10:00:40;;;;;;;2.25;1.75;;;16.20;85.40;;;;;;4202961;28;20103;-39
2024/04/04 10:03:23;;;;;;;1.90;1.80;;;16.10;86.60;;;;;;4202274;28;20096;-45
2024/04/04 10:06:03;;;;;;;2.50;1.75;;;16.10;85.90;;;;;;4202715;28;20050;-45
2024/04/04 10:08:43;;;;;;;1.90;1.80;;;16.10;86.00;;;;;;4187209;28;20415;-47
2024/04/04 10:11:29;;;;;;;1.60;1.50;;;16.10;86.30;;;;;;4185160;28;20568;-45
2024/04/04 10:14:19;;;;;;;2.33;1.67;;;16.10;86.40;;;;;;4186674;28;20060;-46
2024/04/04 10:17:05;;;;;;;2.38;1.75;;;16.00;87.40;;;;;;4198167;28;20055;-47
2024/04/04 10:19:48;;;;;;;1.90;1.80;;;16.00;86.70;;;;;;4202857;28;20062;-39
2024/04/04 10:22:27;;;;;;;2.83;1.65;;;16.00;86.80;;;;;;4192931;28;20106;-39
2024/04/04 10:25:08;;;;;;;1.67;1.40;;;16.00;87.00;;;;;;4177719;28;20506;-39
2024/04/04 10:27:47;;;;;;;1.77;1.67;;;16.00;87.10;;;;;;4169808;28;20059;-40
2024/04/04 10:30:29;;;;;;;2.30;1.30;;;16.00;87.10;;;;;;4187673;28;20121;-45
2024/04/04 10:33:08;;;;;;;;;;;15.90;87.30;;;;;;4197987;28;20098;-48
2024/04/04 10:35:57;;;;;;;2.28;1.65;;;15.90;87.20;;;;;;4186411;28;19935;-39
2024/04/04 10:38:36;;;;;;;2.90;1.60;;;15.90;87.20;;;;;;4201504;28;20501;-39
2024/04/04 10:41:16;;;;;;;3.17;2.03;;;15.90;88.10;;;;;;4202396;28;20183;-39
2024/04/04 10:43:55;;;;;;;2.42;2.10;;;15.90;87.50;;;;;;4201548;28;20051;-39
2024/04/04 10:46:42;;;;;;;2.70;1.90;;;15.90;87.60;;;;;;4204695;28;20140;-39
2024/04/04 10:49:23;;;;;;;3.45;2.10;;;15.90;87.70;;;;;;4206135;28;20125;-39
2024/04/04 10:52:04;;;;;;;2.25;2.05;;;15.90;87.80;;;;;;4205934;28;20051;-39
2024/04/04 10:54:44;;;;;;;1.75;1.58;;;15.90;87.80;;;;;;4197456;28;20058;-39
2024/04/04 10:57:24;;;;;;;2.10;1.90;;;15.90;88.00;;;;;;4203826;28;20101;-39
2024/04/04 11:00:10;;;;;;;3.92;2.20;;;15.90;88.10;;;;;;4189475;28;20397;-39
2024/04/04 11:02:52;;;;;;;2.40;1.70;;;15.80;88.10;;;;;;4189440;28;20101;-39
2024/04/04 11:05:30;;;;;;;3.70;2.08;;;15.80;88.10;;;;;;4188180;28;20108;-40
2024/04/04 11:08:10;;;;;;;2.13;1.65;;;15.80;88.40;;;;;;4205684;28;20054;-38
2024/04/04 11:10:50;;;;;;;2.17;1.90;;;15.80;88.80;;;;;;4205930;28;20078;-40
2024/04/04 11:13:30;;;;;;;2.53;2.05;;;15.80;89.00;;;;;;4205447;28;20047;-39
2024/04/04 11:16:10;;;;;;;3.45;1.95;;;15.90;89.20;;;;;;4189400;28;20438;-39
2024/04/04 11:18:51;;;;;;;2.92;1.70;;;15.90;89.30;;;;;;4187791;28;20075;-39
2024/04/04 11:21:30;;;;;;;;;;;15.90;89.40;;;;;;4198954;28;20513;-40
2024/04/04 11:24:10;;;;;;;1.58;1.48;;;15.90;89.30;;;;;;4205649;28;20313;-40
2024/04/04 11:26:50;;;;;;;3.00;1.30;;;15.90;89.10;;;;;;4190003;28;20068;-39
2024/04/04 11:29:30;;;;;;;1.45;1.35;;;16.00;89.40;;;;;;4202930;28;20055;-39
2024/04/04 11:32:09;;;;;;;1.13;1.02;;;16.00;90.00;;;;;;4205755;28;20050;-40
2024/04/04 11:34:50;;;;;;;2.08;1.20;;;16.00;89.40;;;;;;4201766;28;20146;-40
2024/04/04 11:37:31;;;;;;;1.75;1.20;;;16.10;89.30;;;;;;4187860;28;20052;-39
2024/04/04 11:40:12;;;;;;;2.58;1.90;;;16.10;89.20;;;;;;4188770;28;20059;-40
2024/04/04 11:42:52;;;;;;;1.65;1.38;;;16.10;89.20;;;;;;4204754;28;20120;-41
2024/04/04 11:45:31;;;;;;;4.65;1.60;;;16.20;89.30;;;;;;4189111;28;20063;-41
2024/04/04 11:48:11;;;;;;;3.70;1.95;;;16.20;89.50;;;;;;4201833;28;20101;-41
2024/04/04 11:50:51;;;;;;;5.05;2.47;;;16.20;89.40;;;;;;4204927;28;20050;-44
2024/04/04 11:53:31;;;;;;;4.75;1.95;;;16.30;89.40;;;;;;4205222;28;20090;-44
2024/04/04 11:56:10;;;;;;;6.95;2.50;;;16.30;89.40;;;;;;4204354;28;20109;-42
2024/04/04 11:58:50;;;;;;;8.88;2.35;;;16.30;89.40;;;;;;4203847;28;20075;-39
2024/04/04 12:01:29;;;;;;;6.97;2.38;;;16.30;89.40;;;;;;4204532;28;20086;-40
2024/04/04 12:04:09;;;;;;;5.28;1.98;;;16.30;89.20;;;;;;4173099;28;20376;-39
2024/04/04 12:06:50;;;;;;;7.88;2.40;;;16.40;89.30;;;;;;4171296;28;20141;-40
2024/04/04 12:09:30;;;;;;;7.22;1.92;;;16.40;89.30;;;;;;4183265;28;20438;-39
2024/04/04 12:12:09;;;;;;;6.30;1.98;;;16.40;90.00;;;;;;4173981;28;20107;-40
2024/04/04 12:14:49;;;;;;;7.50;1.33;;;16.40;89.00;;;;;;4204673;28;20066;-39
2024/04/04 12:17:31;;;;;;;9.63;2.00;;;16.40;88.60;;;;;;4203167;28;20109;-40
2024/04/04 12:20:17;;;;;;;6.68;1.65;;;16.40;88.70;;;;;;4204324;28;20058;-40
2024/04/04 12:22:58;;;;;;;7.07;1.98;;;16.40;88.50;;;;;;4205044;28;20078;-39
2024/04/04 12:25:38;;;;;;;6.03;1.58;;;16.40;88.60;;;;;;4198207;28;20074;-40
2024/04/04 12:28:19;;;;;;;8.80;1.70;;;16.40;88.50;;;;;;4200881;28;20122;-39
2024/04/04 12:30:58;;;;;;;5.85;1.30;;;16.40;88.30;;;;;;4187319;28;20106;-40
2024/04/04 12:33:37;;;;;;;6.70;1.33;;;16.40;88.20;;;;;;4188061;28;20118;-39
2024/04/04 12:36:17;;;;;;;4.75;1.40;;;16.40;88.00;;;;;;4191993;28;20182;-39
2024/04/04 12:38:57;;;;;;;10.93;1.88;;;16.40;88.00;;;;;;4204023;28;20042;-39
2024/04/04 12:41:37;;;;;;;8.48;2.15;;;16.40;87.90;;;;;;4199915;28;20066;-39
2024/04/04 12:44:16;;;;;;;5.70;1.33;;;16.40;88.00;;;;;;4187744;28;20054;-44
2024/04/04 12:46:56;;;;;;;4.72;1.13;;;16.50;87.90;;;;;;4188560;28;20047;-44
2024/04/04 12:49:34;;;;;;;5.45;1.40;;;16.50;87.70;;;;;;4187688;28;20129;-44
2024/04/04 12:52:15;;;;;;;10.35;1.73;;;16.50;87.70;;;;;;4197350;28;20063;-45
2024/04/04 12:54:55;;;;;;;10.10;2.08;;;16.50;87.60;;;;;;4192855;28;20398;-44
2024/04/04 12:57:36;;;;;;;12.30;2.78;;;16.50;88.50;;;;;;4187579;28;20100;-40
2024/04/04 13:00:17;;;;;;;12.73;2.47;;;16.50;87.70;;;;;;4202241;28;20059;-39
2024/04/04 13:02:57;;;;;;;13.13;2.17;;;16.50;87.50;;;;;;4203604;28;20051;-40
2024/04/04 13:05:36;;;;;;;7.28;2.10;;;16.40;87.40;;;;;;4201747;28;20051;-40
2024/04/04 13:08:16;;;;;;;8.63;2.17;;;16.50;87.50;;;;;;4196134;28;20106;-39
2024/04/04 13:10:57;;;;;;;6.57;2.53;;;16.40;87.30;;;;;;4200831;28;20486;-39
2024/04/04 13:13:38;;;;;;;12.82;2.00;;;16.40;87.10;;;;;;4187327;28;20055;-39
2024/04/04 13:16:18;;;;;;;;;;;16.40;87.10;;;;;;4202645;28;20055;-44
2024/04/04 13:18:58;;;;;;;13.20;2.83;;;16.40;87.10;;;;;;4193761;28;19939;-44
2024/04/04 13:21:37;;;;;;;13.65;2.58;;;16.40;87.20;;;;;;4191206;28;20067;-44
2024/04/04 13:24:17;;;;;;;10.88;2.67;;;16.40;87.30;;;;;;4203252;28;20050;-45
2024/04/04 13:26:57;;;;;;;9.25;2.92;;;16.30;87.00;;;;;;4201644;28;20078;-44
2024/04/04 13:29:37;;;;;;;13.75;2.50;;;16.40;87.00;;;;;;4186488;28;20399;-45
2024/04/04 13:32:17;;;;;;;10.40;2.45;;;16.30;87.00;;;;;;4196529;28;20181;-45
2024/04/04 13:34:56;;;;;;;8.45;1.88;;;16.30;87.00;;;;;;4193410;28;20059;-39
2024/04/04 13:37:36;;;;;;;6.80;1.90;;;16.30;87.20;;;;;;4194558;28;20133;-39
2024/04/04 13:40:15;;;;;;;12.57;2.45;;;16.30;87.40;;;;;;4188165;28;20506;-40
2024/04/04 13:42:56;;;;;;;17.35;2.47;;;16.30;87.40;;;;;;4198986;28;20059;-39
2024/04/04 13:45:36;;;;;;;15.90;2.72;;;16.30;87.20;;;;;;4186846;28;20080;-39
2024/04/04 13:48:16;;;;;;;9.88;2.05;;;16.20;87.20;;;;;;4186464;28;20073;-39
2024/04/04 13:50:55;;;;;;;9.55;3.03;;;16.20;87.50;;;;;;4185385;28;20616;-39
2024/04/04 13:53:35;;;;;;;9.07;2.53;;;16.20;88.10;;;;;;4186396;28;20060;-39
2024/04/04 13:56:14;;;;;;;7.63;1.77;;;16.20;88.00;;;;;;4186329;28;20094;-39